createdAt,value
2018-04-01T00:00:50.936Z,0
2018-04-01T00:01:52.551Z,0
2018-04-01T00:02:54.212Z,0
2018-04-01T00:03:56.039Z,0
2018-04-01T00:04:57.725Z,0
2018-04-01T00:05:59.491Z,0
2018-04-01T00:07:01.206Z,0
2018-04-01T00:08:02.825Z,0
2018-04-01T00:09:04.590Z,0
2018-04-01T00:10:06.280Z,0
2018-04-01T00:11:07.889Z,0
2018-04-01T00:12:09.695Z,0
2018-04-01T00:13:11.306Z,0
2018-04-01T00:14:13.152Z,0
2018-04-01T00:15:14.768Z,0
2018-04-01T00:16:16.375Z,0
2018-04-01T00:17:17.982Z,0
2018-04-01T00:18:19.598Z,0
2018-04-01T00:19:21.202Z,0
2018-04-01T00:20:22.809Z,0
2018-04-01T00:21:24.412Z,0
2018-04-01T00:22:26.023Z,0
2018-04-01T00:23:27.628Z,0
2018-04-01T00:24:29.238Z,0
2018-04-01T00:25:30.853Z,0
2018-04-01T00:26:32.449Z,0
2018-04-01T00:27:34.089Z,0
2018-04-01T00:28:35.664Z,0
2018-04-01T00:29:37.272Z,0
2018-04-01T00:30:38.885Z,0
2018-04-01T00:31:40.492Z,0
2018-04-01T00:32:42.104Z,0
2018-04-01T00:33:43.718Z,0
2018-04-01T00:34:45.317Z,0
2018-04-01T00:35:46.928Z,0
2018-04-01T00:36:48.532Z,0
2018-04-01T00:37:50.142Z,0
2018-04-01T00:38:51.750Z,0
2018-04-01T00:39:53.358Z,0
2018-04-01T00:40:54.968Z,0
2018-04-01T00:41:56.573Z,0
2018-04-01T00:42:58.192Z,0
2018-04-01T00:43:59.803Z,0
2018-04-01T00:45:01.415Z,0
2018-04-01T00:46:03.041Z,0
2018-04-01T00:47:04.631Z,0
2018-04-01T00:48:06.240Z,0
2018-04-01T00:49:07.846Z,0
2018-04-01T00:50:09.456Z,0
2018-04-01T00:51:11.062Z,0
2018-04-01T00:52:12.670Z,0
2018-04-01T00:53:14.284Z,0
2018-04-01T00:54:15.891Z,0
2018-04-01T00:55:17.501Z,0
2018-04-01T00:56:19.112Z,0
2018-04-01T00:57:20.721Z,0
2018-04-01T00:58:22.326Z,0
2018-04-01T00:59:23.940Z,0
2018-04-01T01:00:25.549Z,0
2018-04-01T01:01:27.156Z,0
2018-04-01T01:02:28.760Z,0
2018-04-01T01:03:30.370Z,0
2018-04-01T01:04:31.988Z,0
2018-04-01T01:05:33.601Z,0
2018-04-01T01:06:35.207Z,0
2018-04-01T01:07:36.822Z,0
2018-04-01T01:08:38.433Z,0
2018-04-01T01:09:40.036Z,0
2018-04-01T01:10:41.642Z,0
2018-04-01T01:11:43.251Z,0
2018-04-01T01:12:44.857Z,0
2018-04-01T01:13:46.463Z,0
2018-04-01T01:14:48.068Z,0
2018-04-01T01:15:49.680Z,0
2018-04-01T01:16:51.290Z,0
2018-04-01T01:17:52.894Z,0
2018-04-01T01:18:54.506Z,0
2018-04-01T01:19:56.107Z,0
2018-04-01T01:20:57.718Z,0
2018-04-01T01:21:59.323Z,0
2018-04-01T01:23:00.935Z,0
2018-04-01T01:24:02.543Z,0
2018-04-01T01:25:04.150Z,0
2018-04-01T01:26:05.755Z,0
2018-04-01T01:27:07.367Z,0
2018-04-01T01:28:08.977Z,0
2018-04-01T01:29:10.585Z,0
2018-04-01T01:30:12.196Z,0
2018-04-01T01:31:13.804Z,0
2018-04-01T01:32:15.406Z,0
2018-04-01T01:33:17.009Z,0
2018-04-01T01:34:18.622Z,0
2018-04-01T01:35:20.230Z,0
2018-04-01T01:36:21.834Z,0
2018-04-01T01:37:23.447Z,0
2018-04-01T01:38:25.058Z,0
2018-04-01T01:39:26.664Z,0
2018-04-01T01:40:28.266Z,0
2018-04-01T01:41:29.873Z,0
2018-04-01T01:42:31.484Z,0
2018-04-01T01:43:33.096Z,0
2018-04-01T01:44:34.707Z,0
2018-04-01T01:45:36.310Z,0
2018-04-01T01:46:37.925Z,0
2018-04-01T01:47:39.530Z,0
2018-04-01T01:48:41.135Z,0
2018-04-01T01:49:42.749Z,0
2018-04-01T01:50:44.352Z,0
2018-04-01T01:51:45.966Z,0
2018-04-01T01:52:47.565Z,0
2018-04-01T01:53:49.174Z,0
2018-04-01T01:54:50.777Z,0
2018-04-01T01:55:52.388Z,0
2018-04-01T01:56:53.994Z,0
2018-04-01T01:57:55.606Z,0
2018-04-01T01:58:57.216Z,0
2018-04-01T01:59:58.818Z,0
2018-04-01T02:01:00.429Z,0
2018-04-01T02:02:02.033Z,0
2018-04-01T02:03:03.642Z,0
2018-04-01T02:04:05.253Z,0
2018-04-01T02:05:06.863Z,0
2018-04-01T02:06:08.466Z,0
2018-04-01T02:07:10.075Z,0
2018-04-01T02:08:11.678Z,0
2018-04-01T02:09:13.290Z,0
2018-04-01T02:10:14.896Z,0
2018-04-01T02:11:16.509Z,0
2018-04-01T02:12:18.112Z,0
2018-04-01T02:13:19.724Z,0
2018-04-01T02:14:21.327Z,0
2018-04-01T02:15:22.936Z,0
2018-04-01T02:16:24.545Z,0
2018-04-01T02:17:26.147Z,0
2018-04-01T02:18:27.753Z,0
2018-04-01T02:19:29.357Z,0
2018-04-01T02:20:30.965Z,0
2018-04-01T02:21:32.568Z,0
2018-04-01T02:22:34.180Z,0
2018-04-01T02:23:35.784Z,0
2018-04-01T02:24:37.396Z,0
2018-04-01T02:25:39.000Z,0
2018-04-01T02:26:40.610Z,0
2018-04-01T02:27:42.215Z,0
2018-04-01T02:28:43.824Z,0
2018-04-01T02:29:45.431Z,0
2018-04-01T02:30:47.039Z,0
2018-04-01T02:31:48.642Z,0
2018-04-01T02:32:50.253Z,0
2018-04-01T02:33:51.865Z,0
2018-04-01T02:34:53.478Z,0
2018-04-01T02:35:55.083Z,0
2018-04-01T02:36:56.697Z,0
2018-04-01T02:37:58.296Z,0
2018-04-01T02:38:59.902Z,0
2018-04-01T02:40:01.516Z,0
2018-04-01T02:41:03.125Z,0
2018-04-01T02:42:04.730Z,0
2018-04-01T02:43:06.338Z,0
2018-04-01T02:44:07.949Z,0
2018-04-01T02:45:09.557Z,0
2018-04-01T02:46:11.157Z,0
2018-04-01T02:47:12.770Z,0
2018-04-01T02:48:14.373Z,0
2018-04-01T02:49:15.984Z,0
2018-04-01T02:50:17.584Z,0
2018-04-01T02:51:19.191Z,0
2018-04-01T02:52:20.805Z,0
2018-04-01T02:53:22.403Z,0
2018-04-01T02:54:24.017Z,0
2018-04-01T02:55:25.627Z,0
2018-04-01T02:56:27.233Z,0
2018-04-01T02:57:28.843Z,0
2018-04-01T02:58:30.446Z,0
2018-04-01T02:59:32.053Z,0
2018-04-01T03:00:33.656Z,0
2018-04-01T03:01:35.266Z,0
2018-04-01T03:02:36.879Z,0
2018-04-01T03:03:38.993Z,0
2018-04-01T03:04:40.582Z,0
2018-04-01T03:05:42.186Z,0
2018-04-01T03:06:43.792Z,0
2018-04-01T03:07:45.398Z,0
2018-04-01T03:08:47.007Z,0
2018-04-01T03:09:48.611Z,0
2018-04-01T03:10:50.217Z,0
2018-04-01T03:11:51.816Z,0
2018-04-01T03:12:53.426Z,0
2018-04-01T03:13:55.030Z,0
2018-04-01T03:14:56.639Z,0
2018-04-01T03:15:58.245Z,0
2018-04-01T03:16:59.855Z,0
2018-04-01T03:18:01.460Z,0
2018-04-01T03:19:03.065Z,0
2018-04-01T03:20:04.675Z,0
2018-04-01T03:21:06.277Z,0
2018-04-01T03:22:07.887Z,0
2018-04-01T03:23:09.495Z,0
2018-04-01T03:24:11.100Z,0
2018-04-01T03:25:12.710Z,0
2018-04-01T03:26:14.315Z,0
2018-04-01T03:27:15.918Z,0
2018-04-01T03:28:17.526Z,0
2018-04-01T03:29:19.133Z,0
2018-04-01T03:30:20.739Z,0
2018-04-01T03:31:22.349Z,0
2018-04-01T03:32:23.949Z,0
2018-04-01T03:33:25.557Z,0
2018-04-01T03:34:27.158Z,0
2018-04-01T03:35:28.765Z,0
2018-04-01T03:36:30.367Z,0
2018-04-01T03:37:31.977Z,0
2018-04-01T03:38:33.582Z,0
2018-04-01T03:39:35.195Z,0
2018-04-01T03:40:36.798Z,0
2018-04-01T03:41:38.407Z,0
2018-04-01T03:42:40.008Z,0
2018-04-01T03:43:41.617Z,0
2018-04-01T03:44:43.225Z,0
2018-04-01T03:45:44.829Z,0
2018-04-01T03:46:46.435Z,0
2018-04-01T03:47:48.043Z,0
2018-04-01T03:48:49.655Z,0
2018-04-01T03:49:51.255Z,0
2018-04-01T03:50:52.859Z,0
2018-04-01T03:51:54.469Z,0
2018-04-01T03:52:56.079Z,0
2018-04-01T03:53:57.681Z,0
2018-04-01T03:54:59.286Z,0
2018-04-01T03:56:00.894Z,0
2018-04-01T03:57:02.500Z,0
2018-04-01T03:58:04.104Z,0
2018-04-01T03:59:05.709Z,0
2018-04-01T04:00:07.319Z,0
2018-04-01T04:01:08.931Z,0
2018-04-01T04:02:10.528Z,0
2018-04-01T04:03:12.134Z,0
2018-04-01T04:04:13.744Z,0
2018-04-01T04:05:15.351Z,0
2018-04-01T04:06:16.952Z,0
2018-04-01T04:07:18.558Z,0
2018-04-01T04:08:20.171Z,0
2018-04-01T04:09:21.776Z,0
2018-04-01T04:10:23.384Z,0
2018-04-01T04:11:24.990Z,0
2018-04-01T04:12:26.593Z,0
2018-04-01T04:13:28.203Z,0
2018-04-01T04:14:29.811Z,0
2018-04-01T04:15:31.416Z,0
2018-04-01T04:16:33.022Z,0
2018-04-01T04:17:34.656Z,0
2018-04-01T04:18:36.236Z,0
2018-04-01T04:19:37.835Z,0
2018-04-01T04:20:39.444Z,0
2018-04-01T04:21:41.055Z,0
2018-04-01T04:22:42.659Z,0
2018-04-01T04:23:44.262Z,0
2018-04-01T04:24:45.871Z,0
2018-04-01T04:25:47.475Z,0
2018-04-01T04:26:49.085Z,0
2018-04-01T04:27:50.694Z,0
2018-04-01T04:28:52.298Z,0
2018-04-01T04:29:53.901Z,0
2018-04-01T04:30:55.510Z,0
2018-04-01T04:31:57.114Z,0
2018-04-01T04:32:58.719Z,0
2018-04-01T04:34:00.325Z,0
2018-04-01T04:35:01.936Z,0
2018-04-01T04:36:03.540Z,0
2018-04-01T04:37:05.152Z,0
2018-04-01T04:38:06.752Z,0
2018-04-01T04:39:08.360Z,0
2018-04-01T04:40:09.963Z,0
2018-04-01T04:41:11.574Z,0
2018-04-01T04:42:13.186Z,0
2018-04-01T04:43:14.790Z,0
2018-04-01T04:44:16.401Z,0
2018-04-01T04:45:18.011Z,0
2018-04-01T04:46:19.614Z,4
2018-04-01T04:47:21.220Z,4
2018-04-01T04:48:22.823Z,0
2018-04-01T04:49:24.437Z,4
2018-04-01T04:50:26.047Z,4
2018-04-01T04:51:27.652Z,4
2018-04-01T04:52:29.257Z,8
2018-04-01T04:53:30.871Z,12
2018-04-01T04:54:32.480Z,16
2018-04-01T04:55:34.086Z,16
2018-04-01T04:56:35.693Z,16
2018-04-01T04:57:37.307Z,20
2018-04-01T04:58:38.912Z,20
2018-04-01T04:59:40.533Z,28
2018-04-01T05:00:42.130Z,40
2018-04-01T05:01:43.736Z,48
2018-04-01T05:02:45.340Z,60
2018-04-01T05:03:46.951Z,68
2018-04-01T05:04:48.568Z,72
2018-04-01T05:05:50.169Z,72
2018-04-01T05:06:51.783Z,84
2018-04-01T05:07:53.388Z,88
2018-04-01T05:08:54.996Z,92
2018-04-01T05:09:56.610Z,100
2018-04-01T05:10:58.220Z,104
2018-04-01T05:11:59.830Z,108
2018-04-01T05:13:01.438Z,116
2018-04-01T05:14:03.051Z,120
2018-04-01T05:15:04.661Z,128
2018-04-01T05:16:06.271Z,128
2018-04-01T05:17:07.887Z,128
2018-04-01T05:18:09.486Z,132
2018-04-01T05:19:11.104Z,132
2018-04-01T05:20:12.712Z,136
2018-04-01T05:21:14.320Z,140
2018-04-01T05:22:15.932Z,140
2018-04-01T05:23:17.535Z,152
2018-04-01T05:24:19.148Z,156
2018-04-01T05:25:20.755Z,168
2018-04-01T05:26:22.372Z,172
2018-04-01T05:27:24.762Z,172
2018-04-01T05:28:25.546Z,188
2018-04-01T05:29:27.152Z,184
2018-04-01T05:30:28.764Z,192
2018-04-01T05:31:30.377Z,200
2018-04-01T05:32:31.984Z,216
2018-04-01T05:33:33.603Z,208
2018-04-01T05:34:35.212Z,208
2018-04-01T05:35:36.819Z,252
2018-04-01T05:36:38.424Z,264
2018-04-01T05:37:40.037Z,288
2018-04-01T05:38:41.645Z,284
2018-04-01T05:39:43.258Z,284
2018-04-01T05:40:44.865Z,304
2018-04-01T05:41:46.478Z,308
2018-04-01T05:42:48.084Z,320
2018-04-01T05:43:49.700Z,340
2018-04-01T05:44:51.305Z,356
2018-04-01T05:45:52.920Z,364
2018-04-01T05:46:54.524Z,384
2018-04-01T05:47:56.133Z,392
2018-04-01T05:48:57.754Z,400
2018-04-01T05:49:59.358Z,404
2018-04-01T05:51:00.969Z,408
2018-04-01T05:52:02.571Z,416
2018-04-01T05:53:04.181Z,428
2018-04-01T05:54:05.790Z,444
2018-04-01T05:55:07.398Z,472
2018-04-01T05:56:09.012Z,496
2018-04-01T05:57:10.621Z,524
2018-04-01T05:58:12.227Z,552
2018-04-01T05:59:13.838Z,580
2018-04-01T06:00:15.442Z,604
2018-04-01T06:01:17.055Z,632
2018-04-01T06:02:18.664Z,652
2018-04-01T06:03:20.278Z,672
2018-04-01T06:04:21.890Z,692
2018-04-01T06:05:23.494Z,704
2018-04-01T06:06:25.109Z,696
2018-04-01T06:07:26.717Z,684
2018-04-01T06:08:28.330Z,684
2018-04-01T06:09:29.954Z,704
2018-04-01T06:10:31.561Z,732
2018-04-01T06:11:33.164Z,748
2018-04-01T06:12:34.774Z,760
2018-04-01T06:13:36.380Z,780
2018-04-01T06:14:37.992Z,808
2018-04-01T06:15:39.600Z,840
2018-04-01T06:16:41.216Z,884
2018-04-01T06:17:42.822Z,924
2018-04-01T06:18:44.433Z,960
2018-04-01T06:19:46.037Z,1016
2018-04-01T06:20:47.657Z,1068
2018-04-01T06:21:49.259Z,1128
2018-04-01T06:22:50.869Z,1192
2018-04-01T06:23:52.483Z,1200
2018-04-01T06:24:54.098Z,1188
2018-04-01T06:25:55.710Z,1180
2018-04-01T06:26:57.320Z,1200
2018-04-01T06:27:58.931Z,1224
2018-04-01T06:29:00.542Z,1212
2018-04-01T06:30:02.156Z,1188
2018-04-01T06:31:03.773Z,1192
2018-04-01T06:32:05.377Z,1248
2018-04-01T06:33:06.985Z,1288
2018-04-01T06:34:08.599Z,1328
2018-04-01T06:35:10.214Z,1348
2018-04-01T06:36:11.821Z,1364
2018-04-01T06:37:13.435Z,1376
2018-04-01T06:38:15.043Z,1376
2018-04-01T06:39:16.659Z,1388
2018-04-01T06:40:18.263Z,1396
2018-04-01T06:41:19.879Z,1400
2018-04-01T06:42:21.489Z,1372
2018-04-01T06:43:23.099Z,1340
2018-04-01T06:44:24.768Z,1332
2018-04-01T06:45:27.188Z,1356
2018-04-01T06:46:28.741Z,1380
2018-04-01T06:47:30.354Z,1396
2018-04-01T06:48:31.963Z,1384
2018-04-01T06:49:33.579Z,1356
2018-04-01T06:50:35.188Z,1320
2018-04-01T06:51:36.805Z,1304
2018-04-01T06:52:38.412Z,1284
2018-04-01T06:53:40.028Z,1280
2018-04-01T06:54:41.635Z,1236
2018-04-01T06:55:43.252Z,1172
2018-04-01T06:56:44.862Z,1084
2018-04-01T06:57:46.471Z,988
2018-04-01T06:58:48.084Z,904
2018-04-01T06:59:49.694Z,876
2018-04-01T07:00:51.302Z,856
2018-04-01T07:01:52.908Z,836
2018-04-01T07:02:54.521Z,788
2018-04-01T07:03:56.127Z,756
2018-04-01T07:04:57.738Z,772
2018-04-01T07:05:59.344Z,804
2018-04-01T07:07:00.957Z,780
2018-04-01T07:08:02.564Z,712
2018-04-01T07:09:04.205Z,684
2018-04-01T07:10:05.814Z,624
2018-04-01T07:11:07.419Z,580
2018-04-01T07:12:09.051Z,628
2018-04-01T07:13:10.637Z,680
2018-04-01T07:14:12.266Z,696
2018-04-01T07:15:13.875Z,752
2018-04-01T07:16:15.482Z,636
2018-04-01T07:17:17.230Z,528
2018-04-01T07:18:18.834Z,632
2018-04-01T07:19:20.439Z,808
2018-04-01T07:20:22.050Z,636
2018-04-01T07:21:23.659Z,548
2018-04-01T07:22:25.274Z,448
2018-04-01T07:23:26.876Z,420
2018-04-01T07:24:28.749Z,492
2018-04-01T07:25:30.418Z,600
2018-04-01T07:26:32.010Z,780
2018-04-01T07:27:33.620Z,892
2018-04-01T07:28:35.228Z,936
2018-04-01T07:29:36.842Z,964
2018-04-01T07:30:38.448Z,956
2018-04-01T07:31:40.062Z,1128
2018-04-01T07:32:41.674Z,1204
2018-04-01T07:33:43.286Z,1128
2018-04-01T07:34:44.898Z,1164
2018-04-01T07:35:46.511Z,1008
2018-04-01T07:36:48.123Z,980
2018-04-01T07:37:49.730Z,1020
2018-04-01T07:38:51.336Z,976
2018-04-01T07:39:52.952Z,920
2018-04-01T07:40:54.560Z,884
2018-04-01T07:41:56.164Z,716
2018-04-01T07:42:57.782Z,692
2018-04-01T07:43:59.400Z,668
2018-04-01T07:45:01.007Z,688
2018-04-01T07:46:03.497Z,700
2018-04-01T07:47:05.102Z,736
2018-04-01T07:48:06.708Z,736
2018-04-01T07:49:08.323Z,804
2018-04-01T07:50:09.977Z,892
2018-04-01T07:51:11.578Z,1004
2018-04-01T07:52:13.184Z,1064
2018-04-01T07:53:14.792Z,1004
2018-04-01T07:54:16.403Z,896
2018-04-01T07:55:18.014Z,752
2018-04-01T07:56:19.620Z,736
2018-04-01T07:57:21.231Z,788
2018-04-01T07:58:22.842Z,880
2018-04-01T07:59:24.454Z,944
2018-04-01T08:00:26.059Z,980
2018-04-01T08:01:27.671Z,1004
2018-04-01T08:02:29.278Z,996
2018-04-01T08:03:30.890Z,960
2018-04-01T08:04:32.497Z,904
2018-04-01T08:05:34.108Z,840
2018-04-01T08:06:35.721Z,956
2018-04-01T08:07:37.329Z,1072
2018-04-01T08:08:38.960Z,1084
2018-04-01T08:09:40.568Z,1044
2018-04-01T08:10:42.227Z,952
2018-04-01T08:11:43.832Z,920
2018-04-01T08:12:45.450Z,932
2018-04-01T08:13:47.052Z,992
2018-04-01T08:14:48.684Z,1132
2018-04-01T08:15:50.295Z,1320
2018-04-01T08:16:52.999Z,1372
2018-04-01T08:17:56.266Z,1416
2018-04-01T08:19:01.792Z,1580
2018-04-01T08:20:04.559Z,1544
2018-04-01T08:21:07.112Z,1736
2018-04-01T08:22:11.331Z,1792
2018-04-01T08:23:13.934Z,1784
2018-04-01T08:24:15.715Z,1960
2018-04-01T08:25:19.430Z,1904
2018-04-01T08:26:24.140Z,1900
2018-04-01T08:27:26.408Z,1968
2018-04-01T08:28:31.030Z,2032
2018-04-01T08:29:35.204Z,1960
2018-04-01T08:30:38.086Z,2116
2018-04-01T08:31:43.308Z,2904
2018-04-01T08:32:46.236Z,2920
2018-04-01T08:33:53.873Z,2556
2018-04-01T08:34:55.600Z,2884
2018-04-01T08:36:01.492Z,2708
2018-04-01T08:37:06.788Z,2476
2018-04-01T08:38:11.363Z,2108
2018-04-01T08:39:17.163Z,2192
2018-04-01T08:40:22.392Z,2204
2018-04-01T08:41:26.027Z,1988
2018-04-01T08:42:28.367Z,1676
2018-04-01T08:43:34.882Z,1924
2018-04-01T08:44:39.310Z,1860
2018-04-01T08:45:42.944Z,2316
2018-04-01T08:46:49.976Z,2552
2018-04-01T08:47:54.122Z,1892
2018-04-01T08:48:57.679Z,1564
2018-04-01T08:50:00.652Z,1728
2018-04-01T08:51:06.509Z,2188
2018-04-01T08:52:11.518Z,2528
2018-04-01T08:53:14.602Z,2380
2018-04-01T08:54:16.679Z,2464
2018-04-01T08:55:22.907Z,2728
2018-04-01T08:56:26.706Z,2660
2018-04-01T08:57:34.333Z,2560
2018-04-01T08:58:39.718Z,2248
2018-04-01T08:59:41.676Z,2636
2018-04-01T09:00:43.288Z,2940
2018-04-01T09:01:45.537Z,3256
2018-04-01T09:02:50.194Z,3192
2018-04-01T09:03:56.536Z,3300
2018-04-01T09:05:00.359Z,2688
2018-04-01T09:06:07.989Z,2384
2018-04-01T09:07:11.548Z,1924
2018-04-01T09:08:14.565Z,1400
2018-04-01T09:09:17.855Z,1268
2018-04-01T09:10:22.313Z,1252
2018-04-01T09:11:28.510Z,2188
2018-04-01T09:12:31.835Z,2900
2018-04-01T09:13:36.286Z,3488
2018-04-01T09:14:38.626Z,3368
2018-04-01T09:15:42.774Z,2984
2018-04-01T09:16:46.716Z,2876
2018-04-01T09:17:49.626Z,2744
2018-04-01T09:18:55.000Z,2584
2018-04-01T09:19:57.926Z,2452
2018-04-01T09:21:04.742Z,2384
2018-04-01T09:22:10.922Z,2208
2018-04-01T09:23:17.241Z,2108
2018-04-01T09:24:21.891Z,2072
2018-04-01T09:25:28.083Z,2024
2018-04-01T09:26:30.572Z,1904
2018-04-01T09:27:34.007Z,1884
2018-04-01T09:28:36.451Z,1920
2018-04-01T09:29:43.704Z,1916
2018-04-01T09:30:48.157Z,2196
2018-04-01T09:31:49.764Z,2532
2018-04-01T09:32:52.838Z,2632
2018-04-01T09:33:59.894Z,2412
2018-04-01T09:35:05.411Z,2564
2018-04-01T09:36:07.890Z,2848
2018-04-01T09:37:12.706Z,2868
2018-04-01T09:38:15.796Z,2904
2018-04-01T09:39:23.285Z,3036
2018-04-01T09:40:27.451Z,2988
2018-04-01T09:41:32.292Z,2920
2018-04-01T09:42:35.201Z,2764
2018-04-01T09:43:39.107Z,2868
2018-04-01T09:44:46.909Z,2972
2018-04-01T09:45:52.899Z,3168
2018-04-01T09:46:58.281Z,3380
2018-04-01T09:48:00.615Z,3364
2018-04-01T09:49:07.713Z,3252
2018-04-01T09:50:09.943Z,3432
2018-04-01T09:51:11.686Z,3420
2018-04-01T09:52:18.373Z,2840
2018-04-01T09:53:20.583Z,2736
2018-04-01T09:54:27.827Z,2764
2018-04-01T09:55:32.945Z,2652
2018-04-01T09:56:36.766Z,2576
2018-04-01T09:57:41.751Z,2672
2018-04-01T09:58:47.854Z,2664
2018-04-01T09:59:50.887Z,2484
2018-04-01T10:00:58.276Z,2444
2018-04-01T10:02:01.894Z,2412
2018-04-01T10:03:06.678Z,2372
2018-04-01T10:04:13.301Z,2236
2018-04-01T10:05:18.488Z,2392
2018-04-01T10:06:21.445Z,2364
2018-04-01T10:07:28.394Z,2248
2018-04-01T10:08:33.501Z,2220
2018-04-01T10:09:41.018Z,2236
2018-04-01T10:10:42.590Z,2316
2018-04-01T10:11:44.201Z,2396
2018-04-01T10:12:45.818Z,2396
2018-04-01T10:13:47.442Z,2476
2018-04-01T10:14:49.054Z,2688
2018-04-01T10:15:50.675Z,2936
2018-04-01T10:16:52.285Z,2916
2018-04-01T10:17:53.906Z,2880
2018-04-01T10:18:55.520Z,3072
2018-04-01T10:19:58.806Z,3288
2018-04-01T10:21:00.359Z,3460
2018-04-01T10:22:01.982Z,3752
2018-04-01T10:23:03.590Z,4060
2018-04-01T10:24:05.229Z,4220
2018-04-01T10:25:06.847Z,4424
2018-04-01T10:26:08.464Z,4616
2018-04-01T10:27:10.086Z,4836
2018-04-01T10:28:11.705Z,4976
2018-04-01T10:29:13.322Z,4852
2018-04-01T10:30:14.945Z,4748
2018-04-01T10:31:16.561Z,4868
2018-04-01T10:32:18.175Z,4876
2018-04-01T10:33:19.794Z,4772
2018-04-01T10:34:21.413Z,4656
2018-04-01T10:35:23.021Z,4620
2018-04-01T10:36:24.634Z,4808
2018-04-01T10:37:26.254Z,4880
2018-04-01T10:38:27.878Z,4656
2018-04-01T10:39:29.507Z,4384
2018-04-01T10:40:31.136Z,4176
2018-04-01T10:41:32.745Z,4172
2018-04-01T10:42:34.359Z,4404
2018-04-01T10:43:35.977Z,4724
2018-04-01T10:44:37.587Z,5088
2018-04-01T10:45:39.454Z,5640
2018-04-01T10:46:41.073Z,6312
2018-04-01T10:47:42.687Z,6740
2018-04-01T10:48:44.308Z,6664
2018-04-01T10:54:54.222Z,5140
2018-04-01T10:55:55.841Z,5552
2018-04-01T10:57:47.866Z,6328
2018-04-01T10:58:49.485Z,6160
2018-04-01T11:00:41.219Z,5740
2018-04-01T11:01:42.836Z,5312
2018-04-01T11:03:34.570Z,5440
2018-04-01T11:04:36.164Z,6048
2018-04-01T11:06:27.906Z,7752
2018-04-01T11:07:29.510Z,9308
2018-04-01T11:09:21.241Z,12988
2018-04-01T11:10:22.892Z,15396
2018-04-01T11:12:14.599Z,20064
2018-04-01T11:13:16.389Z,20576
2018-04-01T11:15:08.956Z,21824
2018-04-01T11:16:10.012Z,22880
2018-04-01T11:17:11.633Z,18880
2018-04-01T11:18:13.495Z,17164
2018-04-01T11:19:15.121Z,15976
2018-04-01T11:20:16.741Z,15516
2018-04-01T11:21:18.359Z,15560
2018-04-01T11:22:19.982Z,15588
2018-04-01T11:23:21.599Z,15268
2018-04-01T11:24:23.221Z,15120
2018-04-01T11:25:24.838Z,14620
2018-04-01T11:26:26.462Z,13804
2018-04-01T11:27:28.079Z,12508
2018-04-01T11:28:29.699Z,11040
2018-04-01T11:29:31.325Z,10248
2018-04-01T11:30:32.943Z,10280
2018-04-01T11:31:34.567Z,10360
2018-04-01T11:32:36.180Z,10012
2018-04-01T11:33:37.805Z,8896
2018-04-01T11:34:39.418Z,7512
2018-04-01T11:35:41.038Z,6820
2018-04-01T11:36:42.658Z,6220
2018-04-01T11:37:44.271Z,6372
2018-04-01T11:38:45.889Z,6872
2018-04-01T11:39:47.512Z,6712
2018-04-01T11:40:49.125Z,5928
2018-04-01T11:41:50.741Z,4996
2018-04-01T11:42:52.363Z,4332
2018-04-01T11:43:53.979Z,3844
2018-04-01T11:44:55.598Z,3848
2018-04-01T11:45:57.217Z,3784
2018-04-01T11:46:58.838Z,3548
2018-04-01T11:48:00.452Z,3456
2018-04-01T11:49:02.067Z,3556
2018-04-01T11:50:03.683Z,4060
2018-04-01T11:51:05.962Z,5108
2018-04-01T11:52:06.877Z,6436
2018-04-01T11:53:08.491Z,7900
2018-04-01T11:54:10.111Z,9976
2018-04-01T11:55:11.728Z,12292
2018-04-01T11:56:13.356Z,13516
2018-04-01T11:57:14.982Z,13136
2018-04-01T11:58:16.602Z,12140
2018-04-01T11:59:18.218Z,11636
2018-04-01T12:00:19.844Z,11596
2018-04-01T12:01:21.453Z,11992
2018-04-01T12:02:23.073Z,12784
2018-04-01T12:03:24.688Z,13548
2018-04-01T12:04:26.312Z,14012
2018-04-01T12:05:27.934Z,14624
2018-04-01T12:06:29.556Z,16056
2018-04-01T12:07:31.169Z,16592
2018-04-01T12:08:32.784Z,16308
2018-04-01T12:09:34.408Z,17504
2018-04-01T12:10:36.024Z,16072
2018-04-01T12:11:37.647Z,15160
2018-04-01T12:12:39.267Z,16704
2018-04-01T12:13:40.885Z,19392
2018-04-01T12:14:42.504Z,18624
2018-04-01T12:15:44.120Z,17728
2018-04-01T12:16:45.741Z,17136
2018-04-01T12:17:47.366Z,16144
2018-04-01T12:18:48.983Z,14060
2018-04-01T12:19:50.610Z,12000
2018-04-01T12:20:52.241Z,11472
2018-04-01T12:21:53.845Z,11940
2018-04-01T12:22:55.468Z,12344
2018-04-01T12:23:57.083Z,12392
2018-04-01T12:24:58.714Z,12424
2018-04-01T12:26:00.327Z,12140
2018-04-01T12:27:01.950Z,11628
2018-04-01T12:28:03.571Z,12128
2018-04-01T12:29:05.196Z,12040
2018-04-01T12:30:06.812Z,11844
2018-04-01T12:31:08.434Z,11236
2018-04-01T12:32:10.047Z,9840
2018-04-01T12:33:11.667Z,8440
2018-04-01T12:34:13.287Z,8280
2018-04-01T12:35:14.896Z,8140
2018-04-01T12:36:16.513Z,7612
2018-04-01T12:37:18.127Z,7488
2018-04-01T12:38:19.745Z,7768
2018-04-01T12:39:21.366Z,6992
2018-04-01T12:40:22.986Z,5960
2018-04-01T12:41:24.603Z,5524
2018-04-01T12:42:26.223Z,4884
2018-04-01T12:43:27.838Z,4364
2018-04-01T12:44:29.453Z,4184
2018-04-01T12:45:31.071Z,3796
2018-04-01T12:46:32.683Z,4064
2018-04-01T12:47:34.304Z,4440
2018-04-01T12:48:35.917Z,3984
2018-04-01T12:49:37.533Z,3872
2018-04-01T12:50:39.149Z,4048
2018-04-01T12:51:40.767Z,3284
2018-04-01T12:52:42.377Z,2556
2018-04-01T12:53:43.990Z,2248
2018-04-01T12:54:45.606Z,2304
2018-04-01T12:55:47.225Z,2624
2018-04-01T12:56:48.837Z,3204
2018-04-01T12:57:50.448Z,3472
2018-04-01T12:58:52.070Z,3964
2018-04-01T12:59:53.684Z,4540
2018-04-01T13:00:55.303Z,5372
2018-04-01T13:01:56.920Z,6144
2018-04-01T13:02:58.532Z,7304
2018-04-01T13:04:00.142Z,7252
2018-04-01T13:05:01.760Z,7132
2018-04-01T13:06:03.376Z,8312
2018-04-01T13:07:04.988Z,9916
2018-04-01T13:08:06.607Z,10180
2018-04-01T13:09:08.219Z,9720
2018-04-01T13:10:09.837Z,10300
2018-04-01T13:11:11.458Z,11912
2018-04-01T13:12:13.072Z,11480
2018-04-01T13:13:14.690Z,10532
2018-04-01T13:14:16.309Z,10720
2018-04-01T13:15:17.923Z,10080
2018-04-01T13:16:19.542Z,9144
2018-04-01T13:17:21.155Z,8676
2018-04-01T13:18:22.767Z,8596
2018-04-01T13:19:24.386Z,6408
2018-04-01T13:20:25.998Z,4080
2018-04-01T13:21:27.617Z,3408
2018-04-01T13:22:29.230Z,3212
2018-04-01T13:23:31.348Z,2864
2018-04-01T13:24:32.960Z,2796
2018-04-01T13:25:34.570Z,3220
2018-04-01T13:26:36.189Z,3896
2018-04-01T13:27:37.800Z,4084
2018-04-01T13:28:39.417Z,4084
2018-04-01T13:29:41.032Z,4584
2018-04-01T13:30:42.652Z,5416
2018-04-01T13:31:44.264Z,5416
2018-04-01T13:32:45.885Z,5396
2018-04-01T13:33:47.496Z,5148
2018-04-01T13:34:49.108Z,4668
2018-04-01T13:35:50.726Z,5020
2018-04-01T13:36:52.343Z,6052
2018-04-01T13:37:53.962Z,6740
2018-04-01T13:38:55.575Z,6756
2018-04-01T13:39:57.192Z,5916
2018-04-01T13:40:58.813Z,5816
2018-04-01T13:42:00.431Z,5332
2018-04-01T13:43:02.041Z,4268
2018-04-01T13:44:03.657Z,4024
2018-04-01T13:45:05.273Z,4436
2018-04-01T13:46:06.894Z,4720
2018-04-01T13:47:08.504Z,4504
2018-04-01T13:48:10.122Z,4164
2018-04-01T13:49:11.738Z,4024
2018-04-01T13:50:13.350Z,4488
2018-04-01T13:51:14.972Z,4956
2018-04-01T13:52:16.584Z,5012
2018-04-01T13:53:18.203Z,5524
2018-04-01T13:54:19.813Z,6636
2018-04-01T13:55:21.430Z,7660
2018-04-01T13:56:23.048Z,8756
2018-04-01T13:57:24.662Z,9716
2018-04-01T13:58:26.276Z,10484
2018-04-01T13:59:27.892Z,11724
2018-04-01T14:00:29.511Z,13016
2018-04-01T14:01:31.133Z,13828
2018-04-01T14:02:33.706Z,14484
2018-04-01T14:03:35.320Z,14840
2018-04-01T14:04:36.948Z,15276
2018-04-01T14:05:38.561Z,15372
2018-04-01T14:06:40.183Z,15260
2018-04-01T14:07:41.807Z,14408
2018-04-01T14:08:43.420Z,13048
2018-04-01T14:09:45.042Z,12076
2018-04-01T14:10:46.660Z,11924
2018-04-01T14:11:48.278Z,12688
2018-04-01T14:12:49.900Z,13348
2018-04-01T14:13:51.519Z,13496
2018-04-01T14:14:53.146Z,13264
2018-04-01T14:15:54.765Z,12360
2018-04-01T14:16:56.378Z,10092
2018-04-01T14:17:58.002Z,7596
2018-04-01T14:18:59.619Z,5608
2018-04-01T14:20:01.243Z,4428
2018-04-01T14:21:02.858Z,3288
2018-04-01T14:22:04.477Z,2520
2018-04-01T14:23:06.090Z,2192
2018-04-01T14:24:07.707Z,1992
2018-04-01T14:25:09.331Z,1708
2018-04-01T14:26:10.950Z,1260
2018-04-01T14:27:13.468Z,940
2018-04-01T14:28:15.087Z,768